createdAt,value
2024-03-16T00:00:14.513Z,23.39
2024-03-16T00:01:17.898Z,23.39
2024-03-16T00:02:21.449Z,23.39
2024-03-16T00:03:24.627Z,23.38
2024-03-16T00:04:28.037Z,23.38
2024-03-16T00:05:31.671Z,23.38
2024-03-16T00:06:35.062Z,23.39
2024-03-16T00:07:38.440Z,23.39
2024-03-16T00:08:41.732Z,23.38
2024-03-16T00:09:45.026Z,23.38
2024-03-16T00:10:48.264Z,23.38
2024-03-16T00:11:51.448Z,23.37
2024-03-16T00:12:54.685Z,23.38
2024-03-16T00:13:58.003Z,23.36
2024-03-16T00:15:01.261Z,23.37
2024-03-16T00:16:04.602Z,23.37
2024-03-16T00:17:08.631Z,23.37
2024-03-16T00:18:12.006Z,23.37
2024-03-16T00:19:15.557Z,23.37
2024-03-16T00:20:19.028Z,23.38
2024-03-16T00:21:22.264Z,23.38
2024-03-16T00:22:25.531Z,23.38
2024-03-16T00:23:28.811Z,23.37
2024-03-16T00:24:32.273Z,23.38
2024-03-16T00:25:35.585Z,23.36
2024-03-16T00:26:39.274Z,23.37
2024-03-16T00:27:42.493Z,23.37
2024-03-16T00:28:46.066Z,23.37
2024-03-16T00:29:49.312Z,23.37
2024-03-16T00:30:52.595Z,23.38
2024-03-16T00:31:55.994Z,23.37
2024-03-16T00:32:59.228Z,23.36
2024-03-16T00:34:02.778Z,23.37
2024-03-16T00:35:08.294Z,23.37
2024-03-16T00:36:11.459Z,23.39
2024-03-16T00:37:16.699Z,23.38
2024-03-16T00:38:19.771Z,23.38
2024-03-16T00:39:23.205Z,23.38
2024-03-16T00:40:26.854Z,23.36
2024-03-16T00:41:30.120Z,23.36
2024-03-16T00:42:33.389Z,23.36
2024-03-16T00:43:36.711Z,23.35
2024-03-16T00:44:39.935Z,23.34
2024-03-16T00:45:43.139Z,23.34
2024-03-16T00:46:46.473Z,23.35
2024-03-16T00:47:49.702Z,23.33
2024-03-16T00:48:53.077Z,23.33
2024-03-16T00:49:56.418Z,23.34
2024-03-16T00:50:59.679Z,23.34
2024-03-16T00:52:03.023Z,23.34
2024-03-16T00:53:06.488Z,23.34
2024-03-16T00:54:11.355Z,23.33
2024-03-16T00:55:14.593Z,23.34
2024-03-16T00:56:18.172Z,23.35
2024-03-16T00:57:22.283Z,23.34
2024-03-16T00:58:25.492Z,23.35
2024-03-16T00:59:28.778Z,23.34
2024-03-16T01:00:32.131Z,23.35
2024-03-16T01:01:35.752Z,23.35
2024-03-16T01:02:39.461Z,23.36
2024-03-16T01:03:42.698Z,23.35
2024-03-16T01:04:46.120Z,23.34
2024-03-16T01:05:49.268Z,23.34
2024-03-16T01:06:52.586Z,23.34
2024-03-16T01:07:55.989Z,23.34
2024-03-16T01:08:59.236Z,23.33
2024-03-16T01:10:02.654Z,23.34
2024-03-16T01:11:06.319Z,23.33
2024-03-16T01:12:09.742Z,23.33
2024-03-16T01:13:12.930Z,23.33
2024-03-16T01:14:16.313Z,23.33
2024-03-16T01:15:19.512Z,23.34
2024-03-16T01:16:22.729Z,23.34
2024-03-16T01:17:26.089Z,23.32
2024-03-16T01:18:29.344Z,23.32
2024-03-16T01:19:32.692Z,23.32
2024-03-16T01:20:35.987Z,23.32
2024-03-16T01:21:39.374Z,23.3
2024-03-16T01:22:42.790Z,23.31
2024-03-16T01:23:46.095Z,23.32
2024-03-16T01:24:49.258Z,23.32
2024-03-16T01:25:54.133Z,23.32
2024-03-16T01:26:57.371Z,23.34
2024-03-16T01:28:00.694Z,23.33
2024-03-16T01:29:04.098Z,23.34
2024-03-16T01:30:07.292Z,23.33
2024-03-16T01:31:11.985Z,23.33
2024-03-16T01:32:18.435Z,23.36
2024-03-16T01:33:21.745Z,23.37
2024-03-16T01:34:24.942Z,23.36
2024-03-16T01:35:28.209Z,23.34
2024-03-16T01:36:31.455Z,23.34
2024-03-16T01:37:34.766Z,23.33
2024-03-16T01:38:38.056Z,23.33
2024-03-16T01:39:41.371Z,23.33
2024-03-16T01:40:44.746Z,23.32
2024-03-16T01:41:48.049Z,23.34
2024-03-16T01:42:51.369Z,23.33
2024-03-16T01:43:54.865Z,23.32
2024-03-16T01:44:58.104Z,23.31
2024-03-16T01:46:01.452Z,23.31
2024-03-16T01:47:05.071Z,23.31
2024-03-16T01:48:08.311Z,23.32
2024-03-16T01:49:11.703Z,23.32
2024-03-16T01:50:15.187Z,23.33
2024-03-16T01:51:18.435Z,23.32
2024-03-16T01:52:21.628Z,23.31
2024-03-16T01:53:24.887Z,23.32
2024-03-16T01:54:28.192Z,23.32
2024-03-16T01:55:31.547Z,23.3
2024-03-16T01:56:34.793Z,23.31
2024-03-16T01:57:38.269Z,23.3
2024-03-16T01:58:45.216Z,23.3
2024-03-16T01:59:48.219Z,23.32
2024-03-16T02:00:51.552Z,23.32
2024-03-16T02:01:56.669Z,23.3
2024-03-16T02:03:02.116Z,23.31
2024-03-16T02:04:05.401Z,23.32
2024-03-16T02:05:09.058Z,23.32
2024-03-16T02:06:12.645Z,23.32
2024-03-16T02:07:15.886Z,23.32
2024-03-16T02:08:19.094Z,23.32
2024-03-16T02:09:22.332Z,23.32
2024-03-16T02:10:25.650Z,23.31
2024-03-16T02:11:28.951Z,23.31
2024-03-16T02:12:32.408Z,23.31
2024-03-16T02:13:35.829Z,23.31
2024-03-16T02:14:39.069Z,23.29
2024-03-16T02:15:42.359Z,23.3
2024-03-16T02:16:45.705Z,23.31
2024-03-16T02:17:48.985Z,23.3
2024-03-16T02:18:52.603Z,23.31
2024-03-16T02:19:56.015Z,23.3
2024-03-16T02:20:59.284Z,23.3
2024-03-16T02:22:02.716Z,23.29
2024-03-16T02:23:06.304Z,23.29
2024-03-16T02:24:09.551Z,23.29
2024-03-16T02:25:12.828Z,23.29
2024-03-16T02:26:16.282Z,23.29
2024-03-16T02:27:19.491Z,23.29
2024-03-16T02:28:22.771Z,23.29
2024-03-16T02:29:26.034Z,23.29
2024-03-16T02:30:29.329Z,23.29
2024-03-16T02:31:32.858Z,23.28
2024-03-16T02:32:36.254Z,23.28
2024-03-16T02:33:39.583Z,23.28
2024-03-16T02:34:42.923Z,23.28
2024-03-16T02:35:46.240Z,23.29
2024-03-16T02:36:49.461Z,23.28
2024-03-16T02:37:52.856Z,23.28
2024-03-16T02:38:56.163Z,23.29
2024-03-16T02:39:59.446Z,23.28
2024-03-16T02:41:02.796Z,23.29
2024-03-16T02:42:06.083Z,23.28
2024-03-16T02:43:09.393Z,23.28
2024-03-16T02:44:12.843Z,23.29
2024-03-16T02:45:16.162Z,23.29
2024-03-16T02:46:19.315Z,23.29
2024-03-16T02:47:22.708Z,23.29
2024-03-16T02:48:25.925Z,23.28
2024-03-16T02:49:29.287Z,23.28
2024-03-16T02:50:32.562Z,23.27
2024-03-16T02:51:35.960Z,23.28
2024-03-16T02:52:39.274Z,23.28
2024-03-16T02:53:44.080Z,23.28
2024-03-16T02:54:47.186Z,23.29
2024-03-16T02:55:50.645Z,23.29
2024-03-16T02:56:55.913Z,23.28
2024-03-16T02:57:59.180Z,23.29
2024-03-16T02:59:02.700Z,23.29
2024-03-16T03:00:05.970Z,23.28
2024-03-16T03:01:09.523Z,23.28
2024-03-16T03:02:13.073Z,23.28
2024-03-16T03:03:16.347Z,23.27
2024-03-16T03:04:19.561Z,23.28
2024-03-16T03:05:22.743Z,23.27
2024-03-16T03:06:25.990Z,23.26
2024-03-16T03:07:29.297Z,23.27
2024-03-16T03:08:32.558Z,23.27
2024-03-16T03:09:35.815Z,23.27
2024-03-16T03:10:39.104Z,23.27
2024-03-16T03:11:42.634Z,23.27
2024-03-16T03:12:46.108Z,23.26
2024-03-16T03:13:49.655Z,23.27
2024-03-16T03:14:52.839Z,23.27
2024-03-16T03:15:56.178Z,23.28
2024-03-16T03:16:59.816Z,23.28
2024-03-16T03:18:04.108Z,23.28
2024-03-16T03:19:07.476Z,23.28
2024-03-16T03:20:11.093Z,23.29
2024-03-16T03:21:14.916Z,23.28
2024-03-16T03:22:18.420Z,23.28
2024-03-16T03:23:22.721Z,23.28
2024-03-16T03:24:25.979Z,23.29
2024-03-16T03:25:29.463Z,23.28
2024-03-16T03:26:32.712Z,23.28
2024-03-16T03:27:37.066Z,23.28
2024-03-16T03:28:40.467Z,23.28
2024-03-16T03:29:43.777Z,23.28
2024-03-16T03:30:47.004Z,23.27
2024-03-16T03:31:50.443Z,23.26
2024-03-16T03:32:53.654Z,23.27
2024-03-16T03:33:57.074Z,23.26
2024-03-16T03:35:00.516Z,23.25
2024-03-16T03:36:03.821Z,23.25
2024-03-16T03:37:07.197Z,23.27
2024-03-16T03:38:10.739Z,23.25
2024-03-16T03:39:14.014Z,23.26
2024-03-16T03:40:17.349Z,23.27
2024-03-16T03:41:20.689Z,23.27
2024-03-16T03:42:23.919Z,23.26
2024-03-16T03:43:27.277Z,23.27
2024-03-16T03:44:30.544Z,23.26
2024-03-16T03:45:33.818Z,23.25
2024-03-16T03:46:37.172Z,23.25
2024-03-16T03:47:40.356Z,23.24
2024-03-16T03:48:43.822Z,23.25
2024-03-16T03:49:47.017Z,23.23
2024-03-16T03:50:51.421Z,23.25
2024-03-16T03:51:54.786Z,23.25
2024-03-16T03:52:59.308Z,23.25
2024-03-16T03:54:03.548Z,23.25
2024-03-16T03:55:06.836Z,23.25
2024-03-16T03:56:10.421Z,23.26
2024-03-16T03:57:13.635Z,23.26
2024-03-16T03:58:17.104Z,23.25
2024-03-16T03:59:20.432Z,23.25
2024-03-16T04:00:23.708Z,23.25
2024-03-16T04:01:27.048Z,23.25
2024-03-16T04:02:30.651Z,23.25
2024-03-16T04:03:33.960Z,23.25
2024-03-16T04:04:37.315Z,23.25
2024-03-16T04:05:40.479Z,23.24
2024-03-16T04:06:43.707Z,23.25
2024-03-16T04:07:46.898Z,23.25
2024-03-16T04:08:52.151Z,23.24
2024-03-16T04:09:55.381Z,23.24
2024-03-16T04:10:58.829Z,23.26
2024-03-16T04:12:02.209Z,23.25
2024-03-16T04:13:05.652Z,23.24
2024-03-16T04:14:09.264Z,23.25
2024-03-16T04:15:12.622Z,23.25
2024-03-16T04:16:16.089Z,23.24
2024-03-16T04:17:19.445Z,23.24
2024-03-16T04:18:22.680Z,23.24
2024-03-16T04:19:26.219Z,23.24
2024-03-16T04:20:29.485Z,23.24
2024-03-16T04:21:32.750Z,23.23
2024-03-16T04:22:36.130Z,23.23
2024-03-16T04:23:40.859Z,23.22
2024-03-16T04:24:44.077Z,23.23
2024-03-16T04:25:47.462Z,23.23
2024-03-16T04:26:50.634Z,23.24
2024-03-16T04:27:53.880Z,23.23
2024-03-16T04:28:57.225Z,23.23
2024-03-16T04:30:00.541Z,23.22
2024-03-16T04:31:03.991Z,23.24
2024-03-16T04:32:07.450Z,23.24
2024-03-16T04:33:10.814Z,23.24
2024-03-16T04:34:14.245Z,23.24
2024-03-16T04:35:17.741Z,23.24
2024-03-16T04:36:20.968Z,23.23
2024-03-16T04:37:24.123Z,23.22
2024-03-16T04:38:27.430Z,23.23
2024-03-16T04:39:30.941Z,23.23
2024-03-16T04:40:34.303Z,23.24
2024-03-16T04:41:37.511Z,23.23
2024-03-16T04:42:40.795Z,23.22
2024-03-16T04:43:44.182Z,23.22
2024-03-16T04:44:47.416Z,23.22
2024-03-16T04:45:50.760Z,23.22
2024-03-16T04:46:55.729Z,23.23
2024-03-16T04:48:00.037Z,23.24
2024-03-16T04:49:03.618Z,23.25
2024-03-16T04:50:07.318Z,23.24
2024-03-16T04:51:10.522Z,23.25
2024-03-16T04:52:13.817Z,23.24
2024-03-16T04:53:17.227Z,23.24
2024-03-16T04:54:20.443Z,23.24
2024-03-16T04:55:23.669Z,23.23
2024-03-16T04:56:26.889Z,23.23
2024-03-16T04:57:30.160Z,23.23
2024-03-16T04:58:33.852Z,23.21
2024-03-16T04:59:37.048Z,23.21
2024-03-16T05:00:40.348Z,23.22
2024-03-16T05:01:44.074Z,23.22
2024-03-16T05:02:47.350Z,23.23
2024-03-16T05:03:50.606Z,23.22
2024-03-16T05:04:55.998Z,23.23
2024-03-16T05:06:02.864Z,23.27
2024-03-16T05:07:06.671Z,23.26
2024-03-16T05:08:11.806Z,23.25
2024-03-16T05:09:14.975Z,23.27
2024-03-16T05:10:18.355Z,23.25
2024-03-16T05:11:21.881Z,23.25
2024-03-16T05:12:27.309Z,23.24
2024-03-16T05:13:32.079Z,23.25
2024-03-16T05:14:43.591Z,23.27
2024-03-16T05:15:46.740Z,23.29
2024-03-16T05:16:50.125Z,23.29
2024-03-16T05:17:53.414Z,23.28
2024-03-16T05:18:56.800Z,23.26
2024-03-16T05:20:00.349Z,23.25
2024-03-16T05:21:03.685Z,23.23
2024-03-16T05:22:07.076Z,23.22
2024-03-16T05:23:10.604Z,23.23
2024-03-16T05:24:13.885Z,23.22
2024-03-16T05:25:17.398Z,23.21
2024-03-16T05:26:21.152Z,23.22
2024-03-16T05:27:24.404Z,23.21
2024-03-16T05:28:28.126Z,23.21
2024-03-16T05:29:31.632Z,23.22
2024-03-16T05:30:34.909Z,23.22
2024-03-16T05:31:38.338Z,23.22
2024-03-16T05:32:41.667Z,23.21
2024-03-16T05:33:45.066Z,23.2
2024-03-16T05:34:48.403Z,23.2
2024-03-16T05:35:51.657Z,23.2
2024-03-16T05:36:55.117Z,23.21
2024-03-16T05:37:58.640Z,23.21
2024-03-16T05:39:01.848Z,23.21
2024-03-16T05:40:05.151Z,23.21
2024-03-16T05:41:08.541Z,23.2
2024-03-16T05:42:12.804Z,23.2
2024-03-16T05:43:16.114Z,23.21
2024-03-16T05:44:19.440Z,23.21
2024-03-16T05:45:22.810Z,23.21
2024-03-16T05:46:26.062Z,23.2
2024-03-16T05:47:29.347Z,23.2
2024-03-16T05:48:32.755Z,23.21
2024-03-16T05:49:36.133Z,23.2
2024-03-16T05:50:39.512Z,23.21
2024-03-16T05:51:42.785Z,23.21
2024-03-16T05:52:46.078Z,23.21
2024-03-16T05:53:49.259Z,23.21
2024-03-16T05:54:52.547Z,23.2
2024-03-16T05:55:56.071Z,23.19
2024-03-16T05:56:59.303Z,23.19
2024-03-16T05:58:02.572Z,23.19
2024-03-16T05:59:06.036Z,23.2
2024-03-16T06:00:09.259Z,23.21
2024-03-16T06:01:12.661Z,23.2
2024-03-16T06:02:16.124Z,23.2
2024-03-16T06:03:19.295Z,23.2
2024-03-16T06:04:22.569Z,23.2
2024-03-16T06:05:25.807Z,23.2
2024-03-16T06:06:29.102Z,23.2
2024-03-16T06:07:32.679Z,23.19
2024-03-16T06:08:35.932Z,23.19
2024-03-16T06:09:39.265Z,23.19
2024-03-16T06:10:42.993Z,23.2
2024-03-16T06:11:46.437Z,23.2
2024-03-16T06:12:49.690Z,23.2
2024-03-16T06:13:53.122Z,23.2
2024-03-16T06:14:56.414Z,23.18
2024-03-16T06:15:59.639Z,23.19
2024-03-16T06:17:03.145Z,23.19
2024-03-16T06:18:06.416Z,23.2
2024-03-16T06:19:09.943Z,23.2
2024-03-16T06:20:13.493Z,23.2
2024-03-16T06:21:16.784Z,23.2
2024-03-16T06:22:19.919Z,23.19
2024-03-16T06:23:23.207Z,23.19
2024-03-16T06:24:26.603Z,23.19
2024-03-16T06:25:29.842Z,23.19
2024-03-16T06:26:33.160Z,23.19
2024-03-16T06:27:36.437Z,23.2
2024-03-16T06:28:39.845Z,23.19
2024-03-16T06:29:43.131Z,23.19
2024-03-16T06:30:46.288Z,23.2
2024-03-16T06:31:49.599Z,23.2
2024-03-16T06:32:52.919Z,23.19
2024-03-16T06:33:56.289Z,23.19
2024-03-16T06:34:59.654Z,23.19
2024-03-16T06:36:02.838Z,23.19
2024-03-16T06:37:06.112Z,23.19
2024-03-16T06:38:11.459Z,23.18
2024-03-16T06:39:14.640Z,23.19
2024-03-16T06:40:17.944Z,23.2
2024-03-16T06:41:21.400Z,23.2
2024-03-16T06:42:24.676Z,23.19
2024-03-16T06:43:27.949Z,23.19
2024-03-16T06:44:31.183Z,23.19
2024-03-16T06:45:34.457Z,23.19
2024-03-16T06:46:37.756Z,23.18
2024-03-16T06:47:41.073Z,23.18
2024-03-16T06:48:44.474Z,23.17
2024-03-16T06:49:47.760Z,23.18
2024-03-16T06:50:51.023Z,23.16
2024-03-16T06:51:54.278Z,23.18
2024-03-16T06:52:57.694Z,23.19
2024-03-16T06:54:01.025Z,23.18
2024-03-16T06:55:04.241Z,23.19
2024-03-16T06:56:07.664Z,23.18
2024-03-16T06:57:10.878Z,23.19
2024-03-16T06:58:14.155Z,23.19
2024-03-16T06:59:17.268Z,23.19
2024-03-16T07:00:20.698Z,23.19
2024-03-16T07:01:24.040Z,23.19
2024-03-16T07:02:27.644Z,23.19
2024-03-16T07:03:30.878Z,23.18
2024-03-16T07:04:34.216Z,23.19
2024-03-16T07:05:37.464Z,23.18
2024-03-16T07:06:40.775Z,23.19
2024-03-16T07:07:44.188Z,23.19
2024-03-16T07:08:47.377Z,23.19
2024-03-16T07:09:50.676Z,23.19
2024-03-16T07:10:54.407Z,23.19
2024-03-16T07:11:57.753Z,23.18
2024-03-16T07:13:01.001Z,23.18
2024-03-16T07:14:04.466Z,23.18
2024-03-16T07:15:07.714Z,23.18
2024-03-16T07:16:11.161Z,23.18
2024-03-16T07:17:14.746Z,23.19
2024-03-16T07:18:17.937Z,23.18
2024-03-16T07:19:21.133Z,23.18
2024-03-16T07:20:24.509Z,23.18
2024-03-16T07:21:29.348Z,23.18
2024-03-16T07:22:33.390Z,23.19
2024-03-16T07:23:36.598Z,23.2
2024-03-16T07:24:39.825Z,23.2
2024-03-16T07:25:43.126Z,23.2
2024-03-16T07:26:46.428Z,23.19
2024-03-16T07:27:49.798Z,23.19
2024-03-16T07:28:53.346Z,23.19
2024-03-16T07:29:56.641Z,23.19
2024-03-16T07:30:59.946Z,23.18
2024-03-16T07:32:03.354Z,23.18
2024-03-16T07:33:06.642Z,23.19
2024-03-16T07:34:10.144Z,23.18
2024-03-16T07:35:13.486Z,23.19
2024-03-16T07:36:16.677Z,23.18
2024-03-16T07:37:21.478Z,23.19
2024-03-16T07:38:24.897Z,23.19
2024-03-16T07:39:28.294Z,23.2
2024-03-16T07:40:31.814Z,23.19
2024-03-16T07:41:35.009Z,23.18
2024-03-16T07:42:38.324Z,23.18
2024-03-16T07:43:41.591Z,23.19
2024-03-16T07:44:46.309Z,23.2
2024-03-16T07:45:49.560Z,23.21
2024-03-16T07:46:52.901Z,23.19
2024-03-16T07:47:56.262Z,23.19
2024-03-16T07:48:59.800Z,23.19
2024-03-16T07:50:03.108Z,23.19
2024-03-16T07:51:06.401Z,23.18
2024-03-16T07:52:09.692Z,23.19
2024-03-16T07:53:13.238Z,23.19
2024-03-16T07:54:16.449Z,23.18
2024-03-16T07:55:19.709Z,23.18
2024-03-16T07:56:23.126Z,23.18
2024-03-16T07:57:26.343Z,23.19
2024-03-16T07:58:29.766Z,23.19
2024-03-16T07:59:33.017Z,23.19
2024-03-16T08:00:36.480Z,23.2
2024-03-16T08:01:40.334Z,23.2
2024-03-16T08:02:44.219Z,23.19
2024-03-16T08:03:47.477Z,23.19
2024-03-16T08:04:50.875Z,23.19
2024-03-16T08:05:54.144Z,23.18
2024-03-16T08:06:57.403Z,23.17
2024-03-16T08:08:00.885Z,23.18
2024-03-16T08:09:04.378Z,23.17
2024-03-16T08:10:09.639Z,23.17
2024-03-16T08:11:13.041Z,23.18
2024-03-16T08:12:16.403Z,23.19
2024-03-16T08:13:19.825Z,23.19
2024-03-16T08:14:26.277Z,23.19
2024-03-16T08:15:29.403Z,23.21
2024-03-16T08:16:32.808Z,23.19
2024-03-16T08:17:36.127Z,23.19
2024-03-16T08:18:39.699Z,23.19
2024-03-16T08:19:43.077Z,23.19
2024-03-16T08:20:46.264Z,23.18
2024-03-16T08:21:49.558Z,23.18
2024-03-16T08:22:52.896Z,23.18
2024-03-16T08:23:56.176Z,23.16
2024-03-16T08:24:59.398Z,23.16
2024-03-16T08:26:04.317Z,23.16
2024-03-16T08:27:07.531Z,23.17
2024-03-16T08:28:10.775Z,23.17
2024-03-16T08:29:14.042Z,23.17
2024-03-16T08:30:17.306Z,23.14
2024-03-16T08:31:20.673Z,23.15
2024-03-16T08:32:24.349Z,23.16
2024-03-16T08:33:27.636Z,23.16
2024-03-16T08:34:31.172Z,23.17
2024-03-16T08:35:34.523Z,23.16
2024-03-16T08:36:37.816Z,23.17
2024-03-16T08:37:41.176Z,23.17
2024-03-16T08:38:44.434Z,23.17
2024-03-16T08:39:47.634Z,23.16
2024-03-16T08:40:51.238Z,23.16
2024-03-16T08:41:56.505Z,23.15
2024-03-16T08:42:59.935Z,23.17
2024-03-16T08:44:03.493Z,23.16
2024-03-16T08:45:06.827Z,23.16
2024-03-16T08:46:10.229Z,23.15
2024-03-16T08:47:13.748Z,23.16
2024-03-16T08:48:17.065Z,23.15
2024-03-16T08:49:20.664Z,23.16
2024-03-16T08:50:24.231Z,23.16
2024-03-16T08:51:28.496Z,23.17
2024-03-16T08:52:33.588Z,23.17
2024-03-16T08:53:42.119Z,23.21
2024-03-16T08:54:45.327Z,23.22
2024-03-16T08:55:48.596Z,23.2
2024-03-16T08:56:51.947Z,23.19
2024-03-16T08:57:55.200Z,23.19
2024-03-16T08:58:58.571Z,23.18
2024-03-16T09:00:01.786Z,23.18
2024-03-16T09:01:05.197Z,23.17
2024-03-16T09:02:08.928Z,23.17
2024-03-16T09:03:12.403Z,23.18
2024-03-16T09:04:15.684Z,23.17
2024-03-16T09:05:18.955Z,23.17
2024-03-16T09:06:22.233Z,23.18
2024-03-16T09:07:25.660Z,23.18
2024-03-16T09:08:28.866Z,23.17
2024-03-16T09:09:32.134Z,23.17
2024-03-16T09:10:35.505Z,23.17
2024-03-16T09:11:38.937Z,23.17
2024-03-16T09:12:42.375Z,23.17
2024-03-16T09:13:45.681Z,23.15
2024-03-16T09:14:48.965Z,23.16
2024-03-16T09:15:52.268Z,23.15
2024-03-16T09:16:55.684Z,23.15
2024-03-16T09:17:59.010Z,23.15
2024-03-16T09:19:02.470Z,23.15
2024-03-16T09:20:05.881Z,23.15
2024-03-16T09:21:09.135Z,23.15
2024-03-16T09:22:12.424Z,23.16
2024-03-16T09:23:15.914Z,23.15
2024-03-16T09:24:19.078Z,23.16
2024-03-16T09:25:23.889Z,23.16
2024-03-16T09:26:27.409Z,23.17
2024-03-16T09:27:30.706Z,23.17
2024-03-16T09:28:33.965Z,23.16
2024-03-16T09:29:39.511Z,23.16
2024-03-16T09:30:42.726Z,23.18
2024-03-16T09:31:47.905Z,23.16
2024-03-16T09:32:51.090Z,23.16
2024-03-16T09:33:54.488Z,23.18
2024-03-16T09:34:57.860Z,23.17
2024-03-16T09:36:01.124Z,23.17
2024-03-16T09:37:04.461Z,23.15
2024-03-16T09:38:07.827Z,23.14
2024-03-16T09:39:11.125Z,23.13
2024-03-16T09:40:14.424Z,23.14
2024-03-16T09:41:18.109Z,23.14
2024-03-16T09:42:21.420Z,23.14
2024-03-16T09:43:24.662Z,23.13
2024-03-16T09:44:28.148Z,23.14
2024-03-16T09:45:32.901Z,23.15
2024-03-16T09:46:36.240Z,23.15
2024-03-16T09:47:39.547Z,23.15
2024-03-16T09:48:43.935Z,23.15
2024-03-16T09:49:49.184Z,23.16
2024-03-16T09:50:52.370Z,23.17
2024-03-16T09:51:55.652Z,23.17
2024-03-16T09:52:59.013Z,23.16
2024-03-16T09:54:02.208Z,23.16
2024-03-16T09:55:05.533Z,23.15
2024-03-16T09:56:09.167Z,23.15
2024-03-16T09:57:12.376Z,23.16
2024-03-16T09:58:15.869Z,23.15
2024-03-16T09:59:24.892Z,23.16
2024-03-16T10:00:34.379Z,23.23
2024-03-16T10:01:39.668Z,23.22
2024-03-16T10:02:42.841Z,23.23
2024-03-16T10:03:46.115Z,23.22
2024-03-16T10:04:49.408Z,23.2
2024-03-16T10:05:52.679Z,23.19
2024-03-16T10:06:58.011Z,23.18
2024-03-16T10:08:01.292Z,23.19
2024-03-16T10:09:04.487Z,23.19
2024-03-16T10:10:07.758Z,23.18
2024-03-16T10:11:11.342Z,23.17
2024-03-16T10:12:14.943Z,23.17
2024-03-16T10:13:18.120Z,23.17
2024-03-16T10:14:21.385Z,23.16
2024-03-16T10:15:26.576Z,23.16
2024-03-16T10:16:31.870Z,23.17
2024-03-16T10:17:35.035Z,23.17
2024-03-16T10:18:39.731Z,23.18
2024-03-16T10:19:42.980Z,23.18
2024-03-16T10:20:46.224Z,23.17
2024-03-16T10:21:51.557Z,23.17
2024-03-16T10:22:54.862Z,23.18
2024-03-16T10:23:58.018Z,23.17
2024-03-16T10:25:07.233Z,23.16
2024-03-16T10:26:10.862Z,23.21
2024-03-16T10:27:14.182Z,23.21
2024-03-16T10:28:19.452Z,23.19
2024-03-16T10:29:24.187Z,23.2
2024-03-16T10:30:27.453Z,23.21
2024-03-16T10:31:30.712Z,23.19
2024-03-16T10:32:33.983Z,23.19
2024-03-16T10:33:37.264Z,23.18
2024-03-16T10:34:40.625Z,23.18
2024-03-16T10:35:43.884Z,23.17
2024-03-16T10:36:47.110Z,23.17
2024-03-16T10:37:52.539Z,23.16
2024-03-16T10:38:57.292Z,23.17
2024-03-16T10:40:00.503Z,23.19
2024-03-16T10:41:03.922Z,23.18
2024-03-16T10:42:07.128Z,23.17
2024-03-16T10:43:10.408Z,23.17
2024-03-16T10:44:13.582Z,23.17
2024-03-16T10:45:16.852Z,23.16
2024-03-16T10:46:20.130Z,23.15
2024-03-16T10:47:23.391Z,23.16
2024-03-16T10:48:26.614Z,23.16
2024-03-16T10:49:31.876Z,23.15
2024-03-16T10:50:35.287Z,23.17
2024-03-16T10:51:44.539Z,23.17
2024-03-16T10:52:47.640Z,23.2
2024-03-16T10:53:52.834Z,23.2
2024-03-16T10:54:56.015Z,23.2
2024-03-16T10:55:59.244Z,23.19
2024-03-16T10:57:02.578Z,23.18
2024-03-16T10:58:05.845Z,23.18
2024-03-16T10:59:10.666Z,23.17
2024-03-16T11:00:13.865Z,23.17
2024-03-16T11:01:17.041Z,23.17
2024-03-16T11:02:20.299Z,23.17
2024-03-16T11:03:23.546Z,23.16
2024-03-16T11:04:26.838Z,23.16
2024-03-16T11:05:31.121Z,23.15
2024-03-16T11:06:34.330Z,23.16
2024-03-16T11:07:37.667Z,23.16
2024-03-16T11:08:43.450Z,23.16
2024-03-16T11:09:46.739Z,23.17
2024-03-16T11:10:50.039Z,23.17
2024-03-16T11:11:53.420Z,23.17
2024-03-16T11:12:56.659Z,23.16
2024-03-16T11:14:01.081Z,23.16
2024-03-16T11:15:04.342Z,23.16
2024-03-16T11:16:09.666Z,23.16
2024-03-16T11:17:13.065Z,23.17
2024-03-16T11:18:16.186Z,23.17
2024-03-16T11:19:20.930Z,23.16
2024-03-16T11:20:24.225Z,23.16
2024-03-16T11:21:28.453Z,23.17
2024-03-16T11:22:31.653Z,23.16
2024-03-16T11:23:34.928Z,23.16
2024-03-16T11:24:38.175Z,23.15
2024-03-16T11:25:43.724Z,23.15
2024-03-16T11:26:46.864Z,23.16
2024-03-16T11:27:50.195Z,23.15
2024-03-16T11:28:53.411Z,23.16
2024-03-16T11:29:56.690Z,23.15
2024-03-16T11:30:59.980Z,23.15
2024-03-16T11:32:03.252Z,23.14
2024-03-16T11:33:06.413Z,23.14
2024-03-16T11:34:09.667Z,23.13
2024-03-16T11:35:12.861Z,23.14
2024-03-16T11:36:16.072Z,23.14
2024-03-16T11:37:19.350Z,23.12
2024-03-16T11:38:22.589Z,23.13
2024-03-16T11:39:25.849Z,23.13
2024-03-16T11:40:29.161Z,23.12
2024-03-16T11:41:32.466Z,23.13
2024-03-16T11:42:35.749Z,23.13
2024-03-16T11:43:39.131Z,23.13
2024-03-16T11:44:42.437Z,23.13
2024-03-16T11:45:45.573Z,23.13
2024-03-16T11:46:48.784Z,23.12
2024-03-16T11:47:51.982Z,23.12
2024-03-16T11:48:55.180Z,23.13
2024-03-16T11:49:58.444Z,23.12
2024-03-16T11:51:01.727Z,23.12
2024-03-16T11:52:05.938Z,23.12
2024-03-16T11:53:09.191Z,23.13
2024-03-16T11:54:12.405Z,23.14
2024-03-16T11:55:15.561Z,23.13
2024-03-16T11:56:20.373Z,23.14
2024-03-16T11:57:23.723Z,23.14
2024-03-16T11:58:26.995Z,23.15
2024-03-16T11:59:30.266Z,23.15
2024-03-16T12:00:33.552Z,23.15
2024-03-16T12:01:36.992Z,23.15
2024-03-16T12:02:41.870Z,23.14
2024-03-16T12:03:45.085Z,23.15
2024-03-16T12:04:48.674Z,23.15
2024-03-16T12:05:51.942Z,23.14
2024-03-16T12:06:55.098Z,23.14
2024-03-16T12:07:58.336Z,23.13
2024-03-16T12:09:01.559Z,23.13
2024-03-16T12:10:04.807Z,23.12
2024-03-16T12:11:08.080Z,23.12
2024-03-16T12:12:11.469Z,23.11
2024-03-16T12:13:14.710Z,23.11
2024-03-16T12:14:22.830Z,23.11
2024-03-16T12:15:32.369Z,23.18
2024-03-16T12:16:41.077Z,23.22
2024-03-16T12:17:45.695Z,23.21
2024-03-16T12:18:48.813Z,23.2
2024-03-16T12:19:52.065Z,23.19
2024-03-16T12:20:55.282Z,23.17
2024-03-16T12:21:58.517Z,23.15
2024-03-16T12:23:01.763Z,23.14
2024-03-16T12:24:05.009Z,23.13
2024-03-16T12:25:08.275Z,23.13
2024-03-16T12:26:11.482Z,23.13
2024-03-16T12:27:14.707Z,23.12
2024-03-16T12:28:18.355Z,23.11
2024-03-16T12:29:21.612Z,23.12
2024-03-16T12:30:24.793Z,23.11
2024-03-16T12:31:28.100Z,23.11
2024-03-16T12:32:31.415Z,23.11
2024-03-16T12:33:34.649Z,23.11
2024-03-16T12:34:38.437Z,23.11
2024-03-16T12:35:43.681Z,23.1
2024-03-16T12:36:46.779Z,23.11
2024-03-16T12:37:50.036Z,23.11
2024-03-16T12:38:53.251Z,23.11
2024-03-16T12:39:56.502Z,23.1
2024-03-16T12:40:59.800Z,23.1
2024-03-16T12:42:03.064Z,23.1
2024-03-16T12:43:06.358Z,23.1
2024-03-16T12:44:10.672Z,23.09
2024-03-16T12:45:13.943Z,23.1
2024-03-16T12:46:17.201Z,23.09
2024-03-16T12:47:20.401Z,23.09
2024-03-16T12:48:25.697Z,23.09
2024-03-16T12:49:28.841Z,23.1
2024-03-16T12:50:31.994Z,23.1
2024-03-16T12:51:35.295Z,23.11
2024-03-16T12:52:38.577Z,23.1
2024-03-16T12:53:43.834Z,23.11
2024-03-16T12:54:46.954Z,23.11
2024-03-16T12:55:50.149Z,23.1
2024-03-16T12:56:53.271Z,23.1
2024-03-16T12:57:56.523Z,23.1
2024-03-16T12:58:59.820Z,23.1
2024-03-16T13:00:03.123Z,23.09
2024-03-16T13:01:06.410Z,23.1
2024-03-16T13:02:10.469Z,23.11
2024-03-16T13:03:13.638Z,23.1
2024-03-16T13:04:16.855Z,23.09
2024-03-16T13:05:21.487Z,23.1
2024-03-16T13:06:25.933Z,23.1
2024-03-16T13:07:30.871Z,23.13
2024-03-16T13:08:34.166Z,23.12
2024-03-16T13:09:37.443Z,23.12
2024-03-16T13:10:40.874Z,23.1
2024-03-16T13:11:44.086Z,23.1
2024-03-16T13:12:47.392Z,23.1
2024-03-16T13:13:50.657Z,23.11
2024-03-16T13:14:53.965Z,23.1
2024-03-16T13:15:57.356Z,23.1
2024-03-16T13:17:00.669Z,23.1
2024-03-16T13:18:03.960Z,23.1
2024-03-16T13:19:07.297Z,23.1
2024-03-16T13:20:10.617Z,23.09
2024-03-16T13:21:16.918Z,23.09
2024-03-16T13:22:21.549Z,23.09
2024-03-16T13:23:24.707Z,23.11
2024-03-16T13:24:30.016Z,23.1
2024-03-16T13:25:33.174Z,23.11
2024-03-16T13:26:36.456Z,23.1
2024-03-16T13:27:39.791Z,23.1
2024-03-16T13:28:45.012Z,23.1
2024-03-16T13:29:48.200Z,23.11
2024-03-16T13:30:51.480Z,23.1
2024-03-16T13:31:54.760Z,23.1
2024-03-16T13:32:58.101Z,23.1
2024-03-16T13:34:01.395Z,23.09
2024-03-16T13:35:04.688Z,23.08
2024-03-16T13:36:08.052Z,23.08
2024-03-16T13:37:11.298Z,23.08
2024-03-16T13:38:15.535Z,23.08
2024-03-16T13:39:18.672Z,23.09
2024-03-16T13:40:21.790Z,23.08
2024-03-16T13:41:24.976Z,23.08